createdAt,value
2018-03-20T00:01:37.037Z,16.07
2018-03-20T00:04:07.365Z,16.73
2018-03-20T00:06:37.045Z,27.50
2018-03-20T00:09:06.524Z,20.63
2018-03-20T00:11:36.008Z,17.77
2018-03-20T00:14:05.482Z,19.50
2018-03-20T00:16:34.961Z,20.50
2018-03-20T00:19:04.437Z,19.23
2018-03-20T00:21:37.972Z,21.03
2018-03-20T00:24:07.430Z,20.97
2018-03-20T00:26:37.875Z,18.50
2018-03-20T00:29:12.487Z,18.27
2018-03-20T00:31:42.581Z,17.87
2018-03-20T00:34:12.064Z,18.90
2018-03-20T00:36:42.292Z,19.70
2018-03-20T00:39:13.274Z,17.67
2018-03-20T00:41:43.540Z,19.50
2018-03-20T00:44:13.717Z,19.20
2018-03-20T00:46:43.737Z,22.17
2018-03-20T00:49:14.303Z,20.80
2018-03-20T00:51:44.020Z,20.90
2018-03-20T00:54:14.911Z,21.60
2018-03-20T00:56:44.375Z,20.13
2018-03-20T00:59:13.851Z,23.43
2018-03-20T01:01:43.294Z,23.97
2018-03-20T01:04:12.737Z,22.87
2018-03-20T01:06:42.185Z,20.97
2018-03-20T01:09:11.631Z,22.87
2018-03-20T01:11:41.073Z,23.83
2018-03-20T01:14:10.520Z,24.23
2018-03-20T01:16:39.962Z,25.40
2018-03-20T01:21:45.290Z,31.63
2018-03-20T01:24:14.734Z,29.57
2018-03-20T01:26:44.184Z,28.63
2018-03-20T01:29:13.641Z,26.77
2018-03-20T01:31:43.086Z,33.60
2018-03-20T01:34:12.529Z,37.70
2018-03-20T01:36:41.978Z,35.37
2018-03-20T01:39:11.430Z,34.70
2018-03-20T01:41:40.863Z,36.17
2018-03-20T01:44:10.318Z,34.97
2018-03-20T01:46:39.780Z,44.97
2018-03-20T01:49:09.227Z,39.47
2018-03-20T01:51:38.666Z,44.23
2018-03-20T01:54:08.114Z,42.17
2018-03-20T01:56:37.550Z,40.17
2018-03-20T01:59:07.001Z,45.63
2018-03-20T02:01:36.438Z,62.17
2018-03-20T02:04:05.901Z,49.17
2018-03-20T02:06:35.353Z,59.07
2018-03-20T02:09:04.795Z,63.03
2018-03-20T02:11:34.245Z,55.47
2018-03-20T02:14:03.690Z,59.57
2018-03-20T02:16:33.131Z,56.30
2018-03-20T02:19:02.574Z,59.47
2018-03-20T02:21:32.074Z,61.13
2018-03-20T02:24:01.575Z,54.83
2018-03-20T02:26:31.019Z,63.30
2018-03-20T02:29:00.465Z,61.77
2018-03-20T02:31:29.908Z,64.73
2018-03-20T02:33:59.359Z,71.77
2018-03-20T02:36:28.824Z,62.93
2018-03-20T02:38:58.271Z,71.23
2018-03-20T02:41:27.710Z,69.13
2018-03-20T02:43:57.159Z,66.97
2018-03-20T02:46:26.628Z,56.40
2018-03-20T02:48:56.055Z,60.83
2018-03-20T02:51:25.498Z,55.60
2018-03-20T02:53:54.956Z,59.53
2018-03-20T02:56:24.400Z,60.33
2018-03-20T02:58:53.866Z,70.23
2018-03-20T03:01:23.310Z,54.90
2018-03-20T03:03:52.755Z,53.37
2018-03-20T03:06:22.204Z,57.77
2018-03-20T03:08:51.654Z,43.80
2018-03-20T03:11:21.107Z,45.00
2018-03-20T03:13:50.546Z,44.07
2018-03-20T03:16:19.985Z,45.03
2018-03-20T03:18:49.422Z,40.33
2018-03-20T03:21:18.871Z,36.97
2018-03-20T03:23:48.311Z,41.53
2018-03-20T03:26:17.762Z,47.37
2018-03-20T03:28:47.203Z,37.13
2018-03-20T03:31:16.709Z,38.33
2018-03-20T03:33:46.142Z,42.20
2018-03-20T03:36:15.587Z,39.33
2018-03-20T03:38:45.032Z,38.73
2018-03-20T03:41:14.488Z,36.07
2018-03-20T03:43:43.930Z,35.43
2018-03-20T03:46:13.502Z,34.23
2018-03-20T03:48:42.951Z,36.07
2018-03-20T03:51:12.394Z,40.20
2018-03-20T03:53:41.834Z,33.10
2018-03-20T03:56:11.279Z,39.40
2018-03-20T03:58:40.719Z,30.67
2018-03-20T04:01:10.162Z,33.63
2018-03-20T04:03:39.603Z,33.90
2018-03-20T04:06:09.047Z,35.33
2018-03-20T04:08:38.482Z,26.90
2018-03-20T04:11:07.932Z,35.97
2018-03-20T04:13:37.359Z,25.80
2018-03-20T04:16:06.802Z,32.20
2018-03-20T04:18:36.243Z,33.43
2018-03-20T04:21:05.674Z,29.97
2018-03-20T04:23:35.118Z,17.13
2018-03-20T04:26:04.563Z,18.70
2018-03-20T04:28:34.010Z,17.13
2018-03-20T04:31:04.070Z,16.47
2018-03-20T04:33:33.514Z,20.40
2018-03-20T04:36:02.955Z,18.23
2018-03-20T04:38:32.402Z,18.00
2018-03-20T04:41:01.852Z,13.93
2018-03-20T04:43:31.286Z,16.23
2018-03-20T04:46:00.722Z,15.00
2018-03-20T04:48:30.161Z,13.13
2018-03-20T04:50:59.606Z,17.10
2018-03-20T04:53:29.054Z,14.17
2018-03-20T04:55:58.491Z,12.27
2018-03-20T04:58:27.934Z,12.23
2018-03-20T05:00:57.368Z,14.30
2018-03-20T05:03:26.810Z,12.37
2018-03-20T05:05:56.242Z,10.87
2018-03-20T05:08:25.682Z,10.37
2018-03-20T05:10:55.117Z,11.63
2018-03-20T05:13:24.567Z,11.13
2018-03-20T05:16:02.826Z,10.90
2018-03-20T05:18:32.291Z,8.43
2018-03-20T05:21:07.482Z,10.00
2018-03-20T05:26:40.422Z,10.10
2018-03-20T05:29:09.859Z,9.50
2018-03-20T05:31:39.292Z,11.17
2018-03-20T05:34:08.735Z,9.30
2018-03-20T05:36:38.167Z,9.83
2018-03-20T05:39:10.826Z,10.20
2018-03-20T05:41:40.254Z,7.87
2018-03-20T05:44:09.700Z,8.47
2018-03-20T05:46:40.957Z,7.27
2018-03-20T05:49:12.962Z,8.20
2018-03-20T05:51:56.234Z,7.00
2018-03-20T05:54:25.681Z,7.63
2018-03-20T05:56:55.098Z,6.50
2018-03-20T05:59:24.534Z,9.57
2018-03-20T06:01:53.970Z,7.60
2018-03-20T06:04:23.440Z,7.50
2018-03-20T06:06:52.874Z,6.80
2018-03-20T06:09:22.298Z,7.90
2018-03-20T06:11:51.731Z,7.33
2018-03-20T06:14:21.167Z,9.13
2018-03-20T06:16:50.599Z,7.77
2018-03-20T06:19:20.039Z,7.93
2018-03-20T06:21:49.486Z,8.77
2018-03-20T06:24:18.898Z,8.43
2018-03-20T06:26:48.599Z,7.13
2018-03-20T06:29:18.030Z,5.90
2018-03-20T06:31:47.466Z,7.40
2018-03-20T06:34:16.894Z,6.40
2018-03-20T06:36:46.329Z,7.70
2018-03-20T06:39:15.770Z,7.03
2018-03-20T06:41:45.211Z,7.47
2018-03-20T06:44:14.642Z,9.30
2018-03-20T06:46:44.082Z,5.50
2018-03-20T06:49:13.507Z,8.60
2018-03-20T06:51:43.002Z,6.77
2018-03-20T06:54:12.435Z,7.17
2018-03-20T06:56:42.357Z,7.27
2018-03-20T06:59:12.413Z,8.13
2018-03-20T07:01:41.982Z,7.17
2018-03-20T07:04:11.418Z,6.90
2018-03-20T07:06:40.855Z,8.50
2018-03-20T07:09:10.287Z,6.10
2018-03-20T07:11:39.967Z,7.10
2018-03-20T07:14:09.390Z,7.17
2018-03-20T07:16:38.827Z,6.13
2018-03-20T07:19:08.259Z,6.97
2018-03-20T07:21:37.703Z,10.57
2018-03-20T07:24:07.136Z,10.43
2018-03-20T07:26:36.586Z,8.07
2018-03-20T07:29:06.010Z,7.27
2018-03-20T07:31:35.446Z,8.40
2018-03-20T07:34:04.882Z,8.07
2018-03-20T07:36:34.314Z,7.33
2018-03-20T07:39:03.756Z,10.10
2018-03-20T07:41:33.203Z,9.60
2018-03-20T07:44:02.636Z,7.47
2018-03-20T07:46:32.082Z,10.27
2018-03-20T07:49:01.506Z,12.47
2018-03-20T07:51:30.943Z,9.77
2018-03-20T07:54:00.379Z,6.83
2018-03-20T07:56:29.866Z,5.80
2018-03-20T07:58:59.248Z,8.87
2018-03-20T08:01:28.692Z,11.00
2018-03-20T08:03:58.126Z,10.00
2018-03-20T08:06:27.558Z,7.83
2018-03-20T08:08:56.995Z,9.67
2018-03-20T08:11:26.432Z,7.40
2018-03-20T08:13:55.871Z,5.20
2018-03-20T08:16:25.299Z,7.10
2018-03-20T08:18:54.739Z,6.63
2018-03-20T08:21:24.171Z,5.10
2018-03-20T08:23:53.610Z,6.37
2018-03-20T08:26:23.043Z,7.13
2018-03-20T08:28:52.490Z,10.10
2018-03-20T08:31:21.918Z,8.03
2018-03-20T08:33:51.358Z,6.97
2018-03-20T08:36:20.798Z,5.53
2018-03-20T08:38:50.235Z,4.87
2018-03-20T08:41:19.671Z,7.07
2018-03-20T08:43:49.106Z,4.70
2018-03-20T08:46:18.539Z,6.40
2018-03-20T08:48:47.974Z,7.63
2018-03-20T08:51:17.408Z,6.83
2018-03-20T08:53:46.849Z,6.57
2018-03-20T08:56:16.278Z,5.10
2018-03-20T08:58:45.719Z,6.73
2018-03-20T09:01:15.147Z,4.60
2018-03-20T09:03:44.582Z,7.77
2018-03-20T09:06:14.011Z,7.63
2018-03-20T09:08:43.467Z,5.87
2018-03-20T09:11:12.958Z,7.10
